Time;durP1;ratioP1;P1;durP2;ratioP2;P2;SDS_P1;SDS_P2;PMS_P1;PMS_P2;Temp;Humidity;BMP_temperature;BMP_pressure;BME280_temperature;BME280_humidity;BME280_pressure;Samples;Min_cycle;Max_cycle;Signal;HPM_P1;HPM_P2
2021/08/27 08:54:54;;;;;;;7.15;5.28;;;;;;;18.10;65.97;97618.74;1890547;76;22636;-63
2021/08/27 08:57:22;;;;;;;9.23;5.10;;;;;;;18.10;65.57;97612.77;1860800;77;20953;-63
2021/08/27 08:59:51;;;;;;;10.55;5.75;;;;;;;18.19;65.01;97613.94;1861735;77;21558;-64
2021/08/27 09:02:19;;;;;;;8.30;5.75;;;;;;;18.29;65.80;97612.08;1861279;77;20955;-64
2021/08/27 09:04:46;;;;;;;11.03;6.03;;;;;;;18.39;65.53;97610.98;1861402;77;20939;-65
2021/08/27 09:07:14;;;;;;;11.15;6.62;;;;;;;18.46;65.38;97610.42;1861030;77;20945;-62
2021/08/27 09:09:41;;;;;;;7.97;6.60;;;;;;;18.51;65.78;97607.45;1796192;78;20987;-62
2021/08/27 09:12:27;;;;;;;7.08;5.75;;;;;;;18.60;65.14;97605.91;1795949;78;21026;-63
2021/08/27 09:15:02;;;;;;;8.80;6.22;;;;;;;18.68;64.93;97607.63;1827658;78;21351;-64
2021/08/27 09:17:37;;;;;;;8.68;6.50;;;;;;;18.78;65.70;97606.53;1828525;77;21344;-64
2021/08/27 09:20:07;;;;;;;8.73;5.67;;;;;;;18.94;65.54;97610.01;1825913;78;20923;-63
2021/08/27 09:22:52;;;;;;;8.13;5.80;;;;;;;19.10;65.06;97608.03;1825825;78;20906;-63
2021/08/27 09:25:23;;;;;;;8.43;5.60;;;;;;;19.22;64.63;97606.36;1825874;78;21366;-65
2021/08/27 09:28:11;;;;;;;8.25;5.60;;;;;;;19.30;65.15;97612.14;1825812;78;21001;-63
2021/08/27 09:30:56;;;;;;;10.50;6.12;;;;;;;19.40;65.39;97607.55;1825914;78;20906;-67
2021/08/27 09:33:26;;;;;;;8.15;5.95;;;;;;;19.54;63.65;97603.20;1798547;78;20986;-63
2021/08/27 09:35:59;;;;;;;8.33;6.70;;;;;;;19.67;61.92;97596.47;1826428;78;21486;-65
2021/08/27 09:38:35;;;;;;;10.85;6.50;;;;;;;19.72;61.40;97588.03;1826126;78;21084;-64
2021/08/27 09:41:09;;;;;;;9.18;6.37;;;;;;;19.81;60.24;97589.16;1830475;77;21005;-63
2021/08/27 09:43:50;;;;;;;9.73;5.83;;;;;;;19.91;59.94;97594.58;1850136;77;21261;-64
2021/08/27 09:46:36;;;;;;;9.73;6.10;;;;;;;20.05;59.55;97595.62;1851618;77;20931;-64
2021/08/27 09:49:31;;;;;;;12.68;6.65;;;;;;;20.18;58.86;97593.53;1761740;80;21540;-64
2021/08/27 09:52:04;;;;;;;9.65;6.17;;;;;;;20.22;58.96;97589.77;1777899;80;21116;-66
2021/08/27 09:54:34;;;;;;;8.90;6.15;;;;;;;20.31;58.14;97586.79;1775076;80;20916;-63
2021/08/27 09:57:23;;;;;;;8.83;6.37;;;;;;;20.48;57.38;97594.47;1776753;80;21526;-65
2021/08/27 09:59:51;;;;;;;10.43;6.95;;;;;;;20.62;55.98;97607.51;1795203;79;21106;-64
2021/08/27 10:02:27;;;;;;;12.85;6.83;;;;;;;20.63;55.58;97596.28;1795876;79;21098;-63
2021/08/27 10:04:57;;;;;;;11.45;6.47;;;;;;;20.61;56.01;97596.43;1794816;79;21974;-64
2021/08/27 10:07:34;;;;;;;6.15;5.55;;;;;;;20.52;55.31;97589.86;1787525;79;20994;-68
2021/08/27 10:10:05;;;;;;;9.48;5.75;;;;;;;20.49;55.39;97607.50;1758253;80;21490;-67
2021/08/27 10:12:35;;;;;;;13.32;6.28;;;;;;;20.50;55.92;97621.30;1783508;80;21485;-69
2021/08/27 10:15:05;;;;;;;13.05;7.03;;;;;;;20.54;55.38;97620.80;1789443;80;20922;-66
2021/08/27 10:17:33;;;;;;;12.88;7.65;;;;;;;20.64;55.37;97622.89;1768066;80;21074;-64
2021/08/27 10:20:05;;;;;;;11.12;6.97;;;;;;;20.67;54.85;97622.17;1730366;81;20987;-65
2021/08/27 10:22:32;;;;;;;10.63;7.15;;;;;;;20.62;55.49;97621.11;1779684;80;20958;-65
2021/08/27 10:25:06;;;;;;;11.18;6.55;;;;;;;20.59;56.09;97628.06;1782361;80;20971;-66
2021/08/27 10:27:35;;;;;;;10.85;6.42;;;;;;;20.53;55.34;97645.06;1789138;80;20971;-63
2021/08/27 10:30:01;;;;;;;12.28;6.58;;;;;;;20.37;53.38;97654.11;1787929;80;21115;-65
2021/08/27 10:32:46;;;;;;;9.63;6.28;;;;;;;20.19;53.67;97652.98;1779892;80;21553;-63
2021/08/27 10:35:31;;;;;;;9.75;6.65;;;;;;;20.05;54.13;97658.72;1766192;80;21455;-62
2021/08/27 10:37:58;;;;;;;11.00;6.50;;;;;;;19.86;54.04;97656.80;1773408;80;20936;-70
2021/08/27 10:40:34;;;;;;;11.63;6.80;;;;;;;19.67;54.45;97654.08;1788056;80;21439;-68
2021/08/27 10:43:02;;;;;;;9.68;6.33;;;;;;;19.52;55.10;97653.02;1790677;80;21113;-65
